Twisp, Washington
Current Conditions -  °F | °C
As of 9:53 PM on Saturday 25 Oct 2014 (Local Time) from KOMK Reporting Station
Overcast Overcast  
Wind Chill: 54°   Ceiling: 3200
Heat Index: 54°   Visibility: 10mi
Dew Point: 47°   Wind: 12mph
Humidity: 77%   Direction: 190°S
Pressure: 29.42"   Gusts: NA
Location:  48.36°N, 120.12°W
Report Text: KOMK 260453Z AUTO 19010KT 10SM OVC032 12/08 A2942 RMK AO2 SLP963 T01220083
Loading
Personal Weather Stations






























Interactive Weather Map
Tropical Storm Tracking
New forecast layout! Learn more

10-Day Weather Forecast

Advertisements
Track Severe Weather on mobile